Wednesday, December 19, 2018, 1:04 AM EST
Back to Local

KBVY, Beverly Municipal Airport

Location: Danvers, MA, United States Lat: 42.583
Local Time: 1:04 AM EST ( 6:04 GMT) Lon: -70.917
Time Zone: US/Eastern Elev: 108 ft

Show me the last for .
Show Decoded

2018-12-19 00:53 METAR KBVY 190553Z AUTO 30013KT 10SM CLR M05/M13 A3001 RMK AO2 SLP161 T10501128
                 11033 21056 55000 =
2018-12-18 23:53 METAR KBVY 190453Z AUTO 31008KT 10SM CLR M05/M13 A3000 RMK AO2 SLP156 T10501128
                 400281050 =
2018-12-18 22:53 METAR KBVY 190353Z AUTO 31010KT 10SM CLR M05/M13 A3001 RMK AO2 SLP159 T10501128
                 =
2018-12-18 21:53 METAR KBVY 190253Z AUTO 31011G18KT 10SM CLR M04/M13 A3001 RMK AO2 SLP162
                 T10441128 50008 =
2018-12-18 20:53 METAR KBVY 190153Z AUTO 31008G20KT 10SM CLR M04/M12 A3002 RMK AO2 SLP162
                 T10391122 =
2018-12-18 19:53 METAR KBVY 190053Z 32015G20KT 10SM CLR M04/M12 A3001 RMK AO2 SLP160 T10391122 =
2018-12-18 18:53 METAR KBVY 182353Z 31016G23KT 10SM CLR M03/M12 A2999 RMK AO2 PK WND 31029/2332
                 SLP154 T10331122 11006 21033 53025 =
2018-12-18 17:53 METAR KBVY 182253Z 31016G22KT 10SM CLR M03/M12 A2996 RMK AO2 PK WND 32027/2220
                 SLP144 T10281122 =
2018-12-18 16:53 METAR KBVY 182153Z 31014G24KT 10SM CLR M02/M12 A2994 RMK AO2 SLP134 T10221122 =
2018-12-18 15:53 METAR KBVY 182053Z 31014G24KT 10SM CLR M01/M12 A2991 RMK AO2 PK WND 31027/2023
                 SLP127 T10111122 53031 =
2018-12-18 14:53 METAR KBVY 181953Z 32014G26KT 10SM CLR M01/M13 A2988 RMK AO2 PK WND 31032/1921
                 SLP116 T10111128 =
2018-12-18 13:53 METAR KBVY 181853Z 32018G31KT 10SM CLR M01/M13 A2984 RMK AO2 PK WND 32033/1821
                 SLP103 T10111128 =
2018-12-18 12:53 METAR KBVY 181753Z 32021G29KT 10SM CLR M01/M13 A2982 RMK AO2 PK WND 33032/1654
                 SLP096 T10111128 11011 21044 53005 =
2018-12-18 11:53 METAR KBVY 181653Z 33023G37KT 10SM CLR M02/M13 A2981 RMK AO2 PK WND 32037/1646
                 SLP093 T10171128 =
2018-12-18 10:53 METAR KBVY 181553Z 31021G29KT 10SM CLR M02/M13 A2981 RMK AO2 PK WND 32032/1543
                 SLP093 T10221128 =
2018-12-18 09:53 METAR KBVY 181453Z 32018G33KT 10SM OVC100 M03/M13 A2981 RMK AO2 PK WND
                 30040/1359 SLP091 T10331133 51034 =
2018-12-18 08:53 METAR KBVY 181353Z 31022G35KT 10SM OVC090 M04/M13 A2978 RMK AO2 PK WND
                 31035/1353 SLP082 T10391133 =
2018-12-18 07:53 METAR KBVY 181253Z 31022G32KT 10SM BKN095 M04/M13 A2975 RMK AO2 PK WND
                 32039/1205 SLP072 T10441133 =
2018-12-18 06:53 METAR KBVY 181153Z 31021G35KT 10SM OVC080 M04/M14 A2971 RMK AO2 PK WND
                 31040/1104 SLP058 60000 T10441139 10022 21044 51026 =
2018-12-18 05:53 METAR KBVY 181053Z AUTO 31020G36KT 10SM OVC090 M04/M14 A2969 RMK AO2 PK WND
                 31041/1001 SLP051 T10391139 =
2018-12-18 04:53 METAR KBVY 180953Z AUTO 31017G33KT 10SM FEW040 SCT075 BKN095 M04/M13 A2967 RMK
                 AO2 PK WND 31039/0901 SLP043 T10391133 =
2018-12-18 03:53 METAR KBVY 180853Z AUTO 31021G36KT 10SM SCT040 SCT060 BKN100 M03/M12 A2963 RMK
                 AO2 PK WND 31036/0850 SLP032 60000 T10281122 53036 =
2018-12-18 02:53 METAR KBVY 180753Z AUTO 30018G31KT 10SM OVC090 M01/M11 A2959 RMK AO2 PK WND
                 33043/0702 SLP016 T10111111 =
2018-12-18 01:53 METAR KBVY 180653Z AUTO 32020G40KT 10SM OVC100 M01/M11 A2957 RMK AO2 PK WND
                 31040/0644 RAE0554 SLP010 P0000 T10061111 =

Support USWX by starting your Amazon purchase here.